sensor_id;sensor_type;location;lat;lon;timestamp;P1;durP1;ratioP1;P2;durP2;ratioP2
22673;SDS011;11504;43.334;21.918;2022-08-06T00:00:06;16.0;;;15.0;;
22673;SDS011;11504;43.334;21.918;2022-08-06T00:04:49;15.0;;;15.0;;
22673;SDS011;11504;43.334;21.918;2022-08-06T00:09:34;15.0;;;15.0;;
22673;SDS011;11504;43.334;21.918;2022-08-06T00:14:11;14.0;;;14.0;;
22673;SDS011;11504;43.334;21.918;2022-08-06T00:18:49;14.0;;;14.0;;
22673;SDS011;11504;43.334;21.918;2022-08-06T00:23:26;14.0;;;13.0;;
22673;SDS011;11504;43.334;21.918;2022-08-06T00:28:03;14.0;;;13.0;;
22673;SDS011;11504;43.334;21.918;2022-08-06T00:32:40;14.0;;;13.0;;
22673;SDS011;11504;43.334;21.918;2022-08-06T00:37:17;16.0;;;14.0;;
22673;SDS011;11504;43.334;21.918;2022-08-06T00:41:54;16.0;;;14.0;;
22673;SDS011;11504;43.334;21.918;2022-08-06T00:46:32;17.0;;;16.0;;
22673;SDS011;11504;43.334;21.918;2022-08-06T00:51:09;17.0;;;16.0;;
22673;SDS011;11504;43.334;21.918;2022-08-06T00:55:46;18.0;;;16.0;;
22673;SDS011;11504;43.334;21.918;2022-08-06T01:00:22;18.0;;;16.0;;
22673;SDS011;11504;43.334;21.918;2022-08-06T01:05:00;18.0;;;17.0;;
22673;SDS011;11504;43.334;21.918;2022-08-06T01:09:39;18.0;;;17.0;;
22673;SDS011;11504;43.334;21.918;2022-08-06T01:14:16;17.0;;;16.0;;
22673;SDS011;11504;43.334;21.918;2022-08-06T01:18:59;17.0;;;16.0;;
22673;SDS011;11504;43.334;21.918;2022-08-06T01:24:46;16.0;;;15.0;;
22673;SDS011;11504;43.334;21.918;2022-08-06T01:31:21;16.0;;;15.0;;
22673;SDS011;11504;43.334;21.918;2022-08-06T01:36:27;16.0;;;15.0;;
22673;SDS011;11504;43.334;21.918;2022-08-06T01:41:26;16.0;;;15.0;;
22673;SDS011;11504;43.334;21.918;2022-08-06T01:46:26;16.0;;;15.0;;
22673;SDS011;11504;43.334;21.918;2022-08-06T01:51:09;16.0;;;15.0;;
22673;SDS011;11504;43.334;21.918;2022-08-06T01:55:54;16.0;;;14.0;;
22673;SDS011;11504;43.334;21.918;2022-08-06T02:00:46;16.0;;;14.0;;
22673;SDS011;11504;43.334;21.918;2022-08-06T02:05:36;15.0;;;14.0;;
22673;SDS011;11504;43.334;21.918;2022-08-06T02:10:28;15.0;;;14.0;;
22673;SDS011;11504;43.334;21.918;2022-08-06T02:15:18;17.0;;;16.0;;
22673;SDS011;11504;43.334;21.918;2022-08-06T02:20:15;17.0;;;16.0;;
22673;SDS011;11504;43.334;21.918;2022-08-06T02:25:21;19.0;;;18.0;;
22673;SDS011;11504;43.334;21.918;2022-08-06T02:30:08;19.0;;;18.0;;
22673;SDS011;11504;43.334;21.918;2022-08-06T02:34:50;18.0;;;18.0;;
22673;SDS011;11504;43.334;21.918;2022-08-06T02:39:32;18.0;;;18.0;;
22673;SDS011;11504;43.334;21.918;2022-08-06T02:45:01;18.0;;;17.0;;
22673;SDS011;11504;43.334;21.918;2022-08-06T02:50:07;18.0;;;17.0;;
22673;SDS011;11504;43.334;21.918;2022-08-06T02:55:15;16.0;;;16.0;;
22673;SDS011;11504;43.334;21.918;2022-08-06T03:00:12;16.0;;;16.0;;
22673;SDS011;11504;43.334;21.918;2022-08-06T03:04:56;15.0;;;14.0;;
22673;SDS011;11504;43.334;21.918;2022-08-06T03:09:55;15.0;;;14.0;;
22673;SDS011;11504;43.334;21.918;2022-08-06T03:14:41;18.0;;;16.0;;
22673;SDS011;11504;43.334;21.918;2022-08-06T03:19:30;18.0;;;16.0;;
22673;SDS011;11504;43.334;21.918;2022-08-06T03:24:18;20.0;;;19.0;;
22673;SDS011;11504;43.334;21.918;2022-08-06T03:29:04;20.0;;;19.0;;
22673;SDS011;11504;43.334;21.918;2022-08-06T03:33:48;17.0;;;16.0;;
22673;SDS011;11504;43.334;21.918;2022-08-06T03:38:44;17.0;;;16.0;;
22673;SDS011;11504;43.334;21.918;2022-08-06T03:43:42;14.0;;;14.0;;
22673;SDS011;11504;43.334;21.918;2022-08-06T03:48:24;14.0;;;14.0;;
22673;SDS011;11504;43.334;21.918;2022-08-06T03:53:20;16.0;;;15.0;;
22673;SDS011;11504;43.334;21.918;2022-08-06T03:58:11;16.0;;;15.0;;
22673;SDS011;11504;43.334;21.918;2022-08-06T04:02:58;17.0;;;16.0;;
22673;SDS011;11504;43.334;21.918;2022-08-06T04:07:43;17.0;;;16.0;;
22673;SDS011;11504;43.334;21.918;2022-08-06T04:12:31;17.0;;;16.0;;
22673;SDS011;11504;43.334;21.918;2022-08-06T04:17:10;18.0;;;18.0;;
22673;SDS011;11504;43.334;21.918;2022-08-06T04:21:52;18.0;;;18.0;;
22673;SDS011;11504;43.334;21.918;2022-08-06T04:26:30;20.0;;;19.0;;
22673;SDS011;11504;43.334;21.918;2022-08-06T04:31:18;20.0;;;19.0;;
22673;SDS011;11504;43.334;21.918;2022-08-06T04:36:03;17.0;;;16.0;;
22673;SDS011;11504;43.334;21.918;2022-08-06T04:40:46;17.0;;;16.0;;
22673;SDS011;11504;43.334;21.918;2022-08-06T04:45:28;14.0;;;13.0;;
22673;SDS011;11504;43.334;21.918;2022-08-06T04:50:13;14.0;;;13.0;;
22673;SDS011;11504;43.334;21.918;2022-08-06T04:54:51;14.0;;;13.0;;
22673;SDS011;11504;43.334;21.918;2022-08-06T04:59:30;14.0;;;13.0;;
22673;SDS011;11504;43.334;21.918;2022-08-06T05:04:07;14.0;;;13.0;;
22673;SDS011;11504;43.334;21.918;2022-08-06T05:08:44;14.0;;;13.0;;
22673;SDS011;11504;43.334;21.918;2022-08-06T05:13:54;14.0;;;13.0;;
22673;SDS011;11504;43.334;21.918;2022-08-06T05:19:11;14.0;;;13.0;;
22673;SDS011;11504;43.334;21.918;2022-08-06T05:24:25;13.0;;;13.0;;
22673;SDS011;11504;43.334;21.918;2022-08-06T05:29:06;13.0;;;13.0;;
22673;SDS011;11504;43.334;21.918;2022-08-06T05:33:43;14.0;;;14.0;;
22673;SDS011;11504;43.334;21.918;2022-08-06T05:38:20;14.0;;;14.0;;
22673;SDS011;11504;43.334;21.918;2022-08-06T05:42:58;15.0;;;14.0;;
22673;SDS011;11504;43.334;21.918;2022-08-06T05:47:36;15.0;;;14.0;;
22673;SDS011;11504;43.334;21.918;2022-08-06T05:52:23;15.0;;;14.0;;
22673;SDS011;11504;43.334;21.918;2022-08-06T05:57:35;14.0;;;14.0;;
22673;SDS011;11504;43.334;21.918;2022-08-06T06:02:38;14.0;;;14.0;;
22673;SDS011;11504;43.334;21.918;2022-08-06T06:07:32;14.0;;;13.0;;
22673;SDS011;11504;43.334;21.918;2022-08-06T06:12:15;14.0;;;13.0;;
22673;SDS011;11504;43.334;21.918;2022-08-06T06:16:55;14.0;;;14.0;;
22673;SDS011;11504;43.334;21.918;2022-08-06T06:22:44;14.0;;;14.0;;
22673;SDS011;11504;43.334;21.918;2022-08-06T06:28:05;14.0;;;14.0;;
22673;SDS011;11504;43.334;21.918;2022-08-06T06:33:28;14.0;;;14.0;;
22673;SDS011;11504;43.334;21.918;2022-08-06T06:38:55;14.0;;;14.0;;
22673;SDS011;11504;43.334;21.918;2022-08-06T06:44:04;15.0;;;14.0;;
22673;SDS011;11504;43.334;21.918;2022-08-06T06:49:20;15.0;;;14.0;;
22673;SDS011;11504;43.334;21.918;2022-08-06T06:54:28;14.0;;;13.0;;
22673;SDS011;11504;43.334;21.918;2022-08-06T06:59:33;14.0;;;13.0;;
22673;SDS011;11504;43.334;21.918;2022-08-06T07:04:31;13.0;;;12.0;;
22673;SDS011;11504;43.334;21.918;2022-08-06T07:09:20;13.0;;;12.0;;
22673;SDS011;11504;43.334;21.918;2022-08-06T07:14:10;14.0;;;12.0;;
22673;SDS011;11504;43.334;21.918;2022-08-06T07:18:55;14.0;;;12.0;;
22673;SDS011;11504;43.334;21.918;2022-08-06T07:23:42;14.0;;;13.0;;
22673;SDS011;11504;43.334;21.918;2022-08-06T07:28:29;14.0;;;13.0;;
22673;SDS011;11504;43.334;21.918;2022-08-06T07:33:15;14.0;;;13.0;;
22673;SDS011;11504;43.334;21.918;2022-08-06T07:37:59;14.0;;;13.0;;
22673;SDS011;11504;43.334;21.918;2022-08-06T07:42:53;14.0;;;13.0;;
22673;SDS011;11504;43.334;21.918;2022-08-06T07:48:10;13.0;;;13.0;;
22673;SDS011;11504;43.334;21.918;2022-08-06T07:53:15;14.0;;;13.0;;
22673;SDS011;11504;43.334;21.918;2022-08-06T07:57:58;14.0;;;13.0;;
22673;SDS011;11504;43.334;21.918;2022-08-06T08:02:40;14.0;;;13.0;;
22673;SDS011;11504;43.334;21.918;2022-08-06T08:07:23;14.0;;;13.0;;
22673;SDS011;11504;43.334;21.918;2022-08-06T08:12:06;14.0;;;13.0;;
22673;SDS011;11504;43.334;21.918;2022-08-06T08:16:55;14.0;;;12.0;;
22673;SDS011;11504;43.334;21.918;2022-08-06T08:21:31;14.0;;;12.0;;
22673;SDS011;11504;43.334;21.918;2022-08-06T08:26:09;13.0;;;12.0;;
22673;SDS011;11504;43.334;21.918;2022-08-06T08:30:45;13.0;;;12.0;;
22673;SDS011;11504;43.334;21.918;2022-08-06T08:35:22;14.0;;;12.0;;
22673;SDS011;11504;43.334;21.918;2022-08-06T08:39:59;14.0;;;12.0;;
22673;SDS011;11504;43.334;21.918;2022-08-06T08:44:38;14.0;;;13.0;;
22673;SDS011;11504;43.334;21.918;2022-08-06T08:49:25;14.0;;;13.0;;
22673;SDS011;11504;43.334;21.918;2022-08-06T08:54:31;14.0;;;14.0;;
22673;SDS011;11504;43.334;21.918;2022-08-06T08:59:30;14.0;;;14.0;;
22673;SDS011;11504;43.334;21.918;2022-08-06T09:04:11;14.0;;;14.0;;
22673;SDS011;11504;43.334;21.918;2022-08-06T09:08:51;14.0;;;14.0;;
22673;SDS011;11504;43.334;21.918;2022-08-06T09:13:31;14.0;;;13.0;;
22673;SDS011;11504;43.334;21.918;2022-08-06T09:18:09;14.0;;;13.0;;
22673;SDS011;11504;43.334;21.918;2022-08-06T09:22:47;14.0;;;13.0;;
22673;SDS011;11504;43.334;21.918;2022-08-06T09:27:24;13.0;;;12.0;;
22673;SDS011;11504;43.334;21.918;2022-08-06T09:32:11;13.0;;;12.0;;
22673;SDS011;11504;43.334;21.918;2022-08-06T09:36:48;13.0;;;12.0;;
22673;SDS011;11504;43.334;21.918;2022-08-06T09:41:26;13.0;;;12.0;;
22673;SDS011;11504;43.334;21.918;2022-08-06T09:46:06;13.0;;;12.0;;
22673;SDS011;11504;43.334;21.918;2022-08-06T09:50:45;13.0;;;12.0;;
22673;SDS011;11504;43.334;21.918;2022-08-06T09:55:27;12.0;;;12.0;;
22673;SDS011;11504;43.334;21.918;2022-08-06T10:00:09;12.0;;;12.0;;
22673;SDS011;11504;43.334;21.918;2022-08-06T10:05:09;12.0;;;12.0;;
22673;SDS011;11504;43.334;21.918;2022-08-06T10:09:52;12.0;;;12.0;;
22673;SDS011;11504;43.334;21.918;2022-08-06T10:14:32;12.0;;;12.0;;
22673;SDS011;11504;43.334;21.918;2022-08-06T10:19:15;12.0;;;12.0;;
22673;SDS011;11504;43.334;21.918;2022-08-06T10:23:53;12.0;;;12.0;;
22673;SDS011;11504;43.334;21.918;2022-08-06T10:28:43;12.0;;;12.0;;
22673;SDS011;11504;43.334;21.918;2022-08-06T10:33:36;12.0;;;12.0;;
22673;SDS011;11504;43.334;21.918;2022-08-06T10:38:35;12.0;;;12.0;;
22673;SDS011;11504;43.334;21.918;2022-08-06T10:43:27;11.0;;;11.0;;
22673;SDS011;11504;43.334;21.918;2022-08-06T10:48:10;11.0;;;11.0;;
22673;SDS011;11504;43.334;21.918;2022-08-06T10:52:50;11.0;;;11.0;;
22673;SDS011;11504;43.334;21.918;2022-08-06T10:57:32;11.0;;;11.0;;
22673;SDS011;11504;43.334;21.918;2022-08-06T11:02:19;11.0;;;11.0;;
22673;SDS011;11504;43.334;21.918;2022-08-06T11:07:56;11.0;;;11.0;;
22673;SDS011;11504;43.334;21.918;2022-08-06T11:14:12;11.0;;;10.0;;
22673;SDS011;11504;43.334;21.918;2022-08-06T11:18:58;11.0;;;10.0;;
22673;SDS011;11504;43.334;21.918;2022-08-06T11:23:47;11.0;;;10.0;;
22673;SDS011;11504;43.334;21.918;2022-08-06T11:28:56;11.0;;;10.0;;
22673;SDS011;11504;43.334;21.918;2022-08-06T11:34:13;11.0;;;10.0;;
22673;SDS011;11504;43.334;21.918;2022-08-06T11:38:57;11.0;;;10.0;;
22673;SDS011;11504;43.334;21.918;2022-08-06T11:44:03;11.0;;;11.0;;
22673;SDS011;11504;43.334;21.918;2022-08-06T11:48:59;11.0;;;11.0;;
22673;SDS011;11504;43.334;21.918;2022-08-06T11:54:09;11.0;;;11.0;;
22673;SDS011;11504;43.334;21.918;2022-08-06T11:59:10;11.0;;;11.0;;
22673;SDS011;11504;43.334;21.918;2022-08-06T12:03:50;11.0;;;11.0;;
22673;SDS011;11504;43.334;21.918;2022-08-06T12:08:27;11.0;;;11.0;;
22673;SDS011;11504;43.334;21.918;2022-08-06T12:13:04;11.0;;;11.0;;
22673;SDS011;11504;43.334;21.918;2022-08-06T12:18:15;10.0;;;10.0;;
22673;SDS011;11504;43.334;21.918;2022-08-06T12:22:52;10.0;;;10.0;;
22673;SDS011;11504;43.334;21.918;2022-08-06T12:27:33;10.0;;;9.0;;
22673;SDS011;11504;43.334;21.918;2022-08-06T12:32:20;10.0;;;9.0;;
22673;SDS011;11504;43.334;21.918;2022-08-06T12:37:04;11.0;;;10.0;;
22673;SDS011;11504;43.334;21.918;2022-08-06T12:41:41;11.0;;;10.0;;
22673;SDS011;11504;43.334;21.918;2022-08-06T12:46:18;12.0;;;12.0;;
22673;SDS011;11504;43.334;21.918;2022-08-06T12:51:01;12.0;;;12.0;;
22673;SDS011;11504;43.334;21.918;2022-08-06T12:55:49;11.0;;;11.0;;
22673;SDS011;11504;43.334;21.918;2022-08-06T13:00:33;11.0;;;11.0;;
22673;SDS011;11504;43.334;21.918;2022-08-06T13:05:14;10.0;;;10.0;;
22673;SDS011;11504;43.334;21.918;2022-08-06T13:10:01;10.0;;;10.0;;
22673;SDS011;11504;43.334;21.918;2022-08-06T13:14:50;10.0;;;10.0;;
22673;SDS011;11504;43.334;21.918;2022-08-06T13:19:32;10.0;;;10.0;;
22673;SDS011;11504;43.334;21.918;2022-08-06T13:24:28;11.0;;;11.0;;
22673;SDS011;11504;43.334;21.918;2022-08-06T13:29:06;11.0;;;11.0;;
22673;SDS011;11504;43.334;21.918;2022-08-06T13:33:58;11.0;;;10.0;;
22673;SDS011;11504;43.334;21.918;2022-08-06T13:38:43;11.0;;;10.0;;
22673;SDS011;11504;43.334;21.918;2022-08-06T13:43:20;11.0;;;10.0;;
22673;SDS011;11504;43.334;21.918;2022-08-06T13:48:17;11.0;;;10.0;;
22673;SDS011;11504;43.334;21.918;2022-08-06T13:52:53;11.0;;;10.0;;
22673;SDS011;11504;43.334;21.918;2022-08-06T13:57:30;11.0;;;10.0;;
22673;SDS011;11504;43.334;21.918;2022-08-06T14:02:07;11.0;;;10.0;;
22673;SDS011;11504;43.334;21.918;2022-08-06T14:06:47;11.0;;;11.0;;
22673;SDS011;11504;43.334;21.918;2022-08-06T14:11:33;11.0;;;11.0;;
22673;SDS011;11504;43.334;21.918;2022-08-06T14:16:10;12.0;;;11.0;;
22673;SDS011;11504;43.334;21.918;2022-08-06T14:20:47;12.0;;;11.0;;
22673;SDS011;11504;43.334;21.918;2022-08-06T14:25:24;12.0;;;11.0;;
22673;SDS011;11504;43.334;21.918;2022-08-06T14:30:03;12.0;;;11.0;;
22673;SDS011;11504;43.334;21.918;2022-08-06T14:34:45;12.0;;;10.0;;
22673;SDS011;11504;43.334;21.918;2022-08-06T14:39:21;12.0;;;10.0;;
22673;SDS011;11504;43.334;21.918;2022-08-06T14:43:58;11.0;;;10.0;;
22673;SDS011;11504;43.334;21.918;2022-08-06T14:48:35;11.0;;;10.0;;
22673;SDS011;11504;43.334;21.918;2022-08-06T14:53:12;11.0;;;10.0;;
22673;SDS011;11504;43.334;21.918;2022-08-06T14:57:48;12.0;;;10.0;;
22673;SDS011;11504;43.334;21.918;2022-08-06T15:02:24;12.0;;;10.0;;
22673;SDS011;11504;43.334;21.918;2022-08-06T15:07:01;12.0;;;11.0;;
22673;SDS011;11504;43.334;21.918;2022-08-06T15:11:38;12.0;;;11.0;;
22673;SDS011;11504;43.334;21.918;2022-08-06T15:16:16;11.0;;;10.0;;
22673;SDS011;11504;43.334;21.918;2022-08-06T15:20:53;11.0;;;10.0;;
22673;SDS011;11504;43.334;21.918;2022-08-06T15:25:29;10.0;;;10.0;;
22673;SDS011;11504;43.334;21.918;2022-08-06T15:30:07;10.0;;;10.0;;
22673;SDS011;11504;43.334;21.918;2022-08-06T15:34:49;10.0;;;10.0;;
22673;SDS011;11504;43.334;21.918;2022-08-06T15:39:28;10.0;;;10.0;;
22673;SDS011;11504;43.334;21.918;2022-08-06T15:44:10;9.0;;;9.0;;
22673;SDS011;11504;43.334;21.918;2022-08-06T15:48:47;9.0;;;9.0;;
22673;SDS011;11504;43.334;21.918;2022-08-06T15:53:25;9.0;;;9.0;;
22673;SDS011;11504;43.334;21.918;2022-08-06T15:58:03;10.0;;;9.0;;
22673;SDS011;11504;43.334;21.918;2022-08-06T16:02:40;10.0;;;9.0;;
22673;SDS011;11504;43.334;21.918;2022-08-06T16:07:17;10.0;;;9.0;;
22673;SDS011;11504;43.334;21.918;2022-08-06T16:11:53;10.0;;;9.0;;
22673;SDS011;11504;43.334;21.918;2022-08-06T16:16:32;10.0;;;10.0;;
22673;SDS011;11504;43.334;21.918;2022-08-06T16:21:08;10.0;;;10.0;;
22673;SDS011;11504;43.334;21.918;2022-08-06T16:25:45;10.0;;;10.0;;
22673;SDS011;11504;43.334;21.918;2022-08-06T16:30:22;10.0;;;10.0;;
22673;SDS011;11504;43.334;21.918;2022-08-06T16:34:59;12.0;;;11.0;;
22673;SDS011;11504;43.334;21.918;2022-08-06T16:39:36;12.0;;;11.0;;
22673;SDS011;11504;43.334;21.918;2022-08-06T16:44:13;13.0;;;12.0;;
22673;SDS011;11504;43.334;21.918;2022-08-06T16:48:50;13.0;;;12.0;;
22673;SDS011;11504;43.334;21.918;2022-08-06T16:53:27;13.0;;;12.0;;
22673;SDS011;11504;43.334;21.918;2022-08-06T16:58:03;13.0;;;12.0;;
22673;SDS011;11504;43.334;21.918;2022-08-06T17:02:40;13.0;;;12.0;;
22673;SDS011;11504;43.334;21.918;2022-08-06T17:07:19;13.0;;;12.0;;
22673;SDS011;11504;43.334;21.918;2022-08-06T17:11:56;13.0;;;12.0;;
22673;SDS011;11504;43.334;21.918;2022-08-06T17:16:33;14.0;;;13.0;;
22673;SDS011;11504;43.334;21.918;2022-08-06T17:21:09;14.0;;;13.0;;
22673;SDS011;11504;43.334;21.918;2022-08-06T17:25:46;15.0;;;14.0;;
22673;SDS011;11504;43.334;21.918;2022-08-06T17:30:23;15.0;;;14.0;;
22673;SDS011;11504;43.334;21.918;2022-08-06T17:35:00;15.0;;;14.0;;
22673;SDS011;11504;43.334;21.918;2022-08-06T17:39:49;15.0;;;14.0;;
22673;SDS011;11504;43.334;21.918;2022-08-06T17:44:25;15.0;;;14.0;;
22673;SDS011;11504;43.334;21.918;2022-08-06T17:49:03;15.0;;;14.0;;
22673;SDS011;11504;43.334;21.918;2022-08-06T17:53:40;14.0;;;14.0;;
22673;SDS011;11504;43.334;21.918;2022-08-06T17:58:17;14.0;;;14.0;;
22673;SDS011;11504;43.334;21.918;2022-08-06T18:02:54;14.0;;;14.0;;
22673;SDS011;11504;43.334;21.918;2022-08-06T18:07:30;14.0;;;14.0;;
22673;SDS011;11504;43.334;21.918;2022-08-06T18:12:08;14.0;;;14.0;;
22673;SDS011;11504;43.334;21.918;2022-08-06T18:16:47;16.0;;;16.0;;
22673;SDS011;11504;43.334;21.918;2022-08-06T18:21:24;16.0;;;16.0;;
22673;SDS011;11504;43.334;21.918;2022-08-06T18:26:01;17.0;;;17.0;;
22673;SDS011;11504;43.334;21.918;2022-08-06T18:30:38;17.0;;;17.0;;
22673;SDS011;11504;43.334;21.918;2022-08-06T18:35:15;16.0;;;15.0;;
22673;SDS011;11504;43.334;21.918;2022-08-06T18:39:52;16.0;;;15.0;;
22673;SDS011;11504;43.334;21.918;2022-08-06T18:44:29;14.0;;;13.0;;
22673;SDS011;11504;43.334;21.918;2022-08-06T18:49:08;14.0;;;13.0;;
22673;SDS011;11504;43.334;21.918;2022-08-06T18:53:44;14.0;;;12.0;;
22673;SDS011;11504;43.334;21.918;2022-08-06T18:58:21;14.0;;;12.0;;
22673;SDS011;11504;43.334;21.918;2022-08-06T19:02:58;14.0;;;12.0;;
22673;SDS011;11504;43.334;21.918;2022-08-06T19:07:36;13.0;;;12.0;;
22673;SDS011;11504;43.334;21.918;2022-08-06T19:12:13;13.0;;;12.0;;
22673;SDS011;11504;43.334;21.918;2022-08-06T19:16:53;14.0;;;14.0;;
22673;SDS011;11504;43.334;21.918;2022-08-06T19:21:30;14.0;;;14.0;;
22673;SDS011;11504;43.334;21.918;2022-08-06T19:26:07;16.0;;;15.0;;
22673;SDS011;11504;43.334;21.918;2022-08-06T19:30:44;16.0;;;15.0;;
22673;SDS011;11504;43.334;21.918;2022-08-06T19:35:21;17.0;;;16.0;;
22673;SDS011;11504;43.334;21.918;2022-08-06T19:39:59;17.0;;;16.0;;
22673;SDS011;11504;43.334;21.918;2022-08-06T19:44:36;18.0;;;18.0;;
22673;SDS011;11504;43.334;21.918;2022-08-06T19:49:13;18.0;;;18.0;;
22673;SDS011;11504;43.334;21.918;2022-08-06T19:53:50;18.0;;;18.0;;
22673;SDS011;11504;43.334;21.918;2022-08-06T19:58:26;18.0;;;18.0;;
22673;SDS011;11504;43.334;21.918;2022-08-06T20:03:04;18.0;;;18.0;;
22673;SDS011;11504;43.334;21.918;2022-08-06T20:07:41;18.0;;;17.0;;
22673;SDS011;11504;43.334;21.918;2022-08-06T20:12:18;18.0;;;17.0;;
22673;SDS011;11504;43.334;21.918;2022-08-06T20:16:55;17.0;;;16.0;;
22673;SDS011;11504;43.334;21.918;2022-08-06T20:21:31;17.0;;;16.0;;
22673;SDS011;11504;43.334;21.918;2022-08-06T20:26:08;16.0;;;16.0;;
22673;SDS011;11504;43.334;21.918;2022-08-06T20:30:45;16.0;;;16.0;;
22673;SDS011;11504;43.334;21.918;2022-08-06T20:35:22;16.0;;;15.0;;
22673;SDS011;11504;43.334;21.918;2022-08-06T20:39:58;16.0;;;15.0;;
22673;SDS011;11504;43.334;21.918;2022-08-06T20:44:35;15.0;;;14.0;;
22673;SDS011;11504;43.334;21.918;2022-08-06T20:49:13;15.0;;;14.0;;
22673;SDS011;11504;43.334;21.918;2022-08-06T20:53:51;14.0;;;14.0;;
22673;SDS011;11504;43.334;21.918;2022-08-06T20:58:30;14.0;;;14.0;;
22673;SDS011;11504;43.334;21.918;2022-08-06T21:03:07;14.0;;;14.0;;
22673;SDS011;11504;43.334;21.918;2022-08-06T21:07:44;14.0;;;13.0;;
22673;SDS011;11504;43.334;21.918;2022-08-06T21:12:31;14.0;;;13.0;;
22673;SDS011;11504;43.334;21.918;2022-08-06T21:17:09;14.0;;;13.0;;
22673;SDS011;11504;43.334;21.918;2022-08-06T21:21:46;14.0;;;13.0;;
22673;SDS011;11504;43.334;21.918;2022-08-06T21:26:23;13.0;;;13.0;;
22673;SDS011;11504;43.334;21.918;2022-08-06T21:31:01;13.0;;;13.0;;
22673;SDS011;11504;43.334;21.918;2022-08-06T21:35:38;14.0;;;13.0;;
22673;SDS011;11504;43.334;21.918;2022-08-06T21:40:16;14.0;;;13.0;;
22673;SDS011;11504;43.334;21.918;2022-08-06T21:44:53;14.0;;;13.0;;
22673;SDS011;11504;43.334;21.918;2022-08-06T21:49:29;14.0;;;13.0;;
22673;SDS011;11504;43.334;21.918;2022-08-06T21:54:06;14.0;;;13.0;;
22673;SDS011;11504;43.334;21.918;2022-08-06T21:58:43;14.0;;;13.0;;
22673;SDS011;11504;43.334;21.918;2022-08-06T22:03:23;14.0;;;13.0;;
22673;SDS011;11504;43.334;21.918;2022-08-06T22:08:01;13.0;;;13.0;;
22673;SDS011;11504;43.334;21.918;2022-08-06T22:12:39;13.0;;;13.0;;
22673;SDS011;11504;43.334;21.918;2022-08-06T22:17:16;14.0;;;13.0;;
22673;SDS011;11504;43.334;21.918;2022-08-06T22:21:53;14.0;;;13.0;;
22673;SDS011;11504;43.334;21.918;2022-08-06T22:26:29;14.0;;;13.0;;
22673;SDS011;11504;43.334;21.918;2022-08-06T22:31:06;14.0;;;13.0;;
22673;SDS011;11504;43.334;21.918;2022-08-06T22:35:44;13.0;;;12.0;;
22673;SDS011;11504;43.334;21.918;2022-08-06T22:40:28;13.0;;;12.0;;
22673;SDS011;11504;43.334;21.918;2022-08-06T22:45:09;12.0;;;12.0;;
22673;SDS011;11504;43.334;21.918;2022-08-06T22:49:47;12.0;;;12.0;;
22673;SDS011;11504;43.334;21.918;2022-08-06T22:54:24;12.0;;;12.0;;
22673;SDS011;11504;43.334;21.918;2022-08-06T22:59:01;12.0;;;12.0;;
22673;SDS011;11504;43.334;21.918;2022-08-06T23:03:38;12.0;;;12.0;;
22673;SDS011;11504;43.334;21.918;2022-08-06T23:08:15;13.0;;;12.0;;
22673;SDS011;11504;43.334;21.918;2022-08-06T23:12:52;13.0;;;12.0;;
22673;SDS011;11504;43.334;21.918;2022-08-06T23:17:28;14.0;;;12.0;;
22673;SDS011;11504;43.334;21.918;2022-08-06T23:22:05;14.0;;;12.0;;
22673;SDS011;11504;43.334;21.918;2022-08-06T23:26:43;14.0;;;13.0;;
22673;SDS011;11504;43.334;21.918;2022-08-06T23:31:20;14.0;;;13.0;;
22673;SDS011;11504;43.334;21.918;2022-08-06T23:35:57;14.0;;;14.0;;
22673;SDS011;11504;43.334;21.918;2022-08-06T23:40:33;14.0;;;14.0;;
22673;SDS011;11504;43.334;21.918;2022-08-06T23:45:10;14.0;;;14.0;;
22673;SDS011;11504;43.334;21.918;2022-08-06T23:49:48;14.0;;;14.0;;
22673;SDS011;11504;43.334;21.918;2022-08-06T23:54:25;13.0;;;13.0;;
22673;SDS011;11504;43.334;21.918;2022-08-06T23:59:02;13.0;;;13.0;;
